M I D A S
Marine Information and Data Acquisition System
Tripno 863 of the Zeeleeuw from 2005-03-15 07:17:54 to 2005-03-15 12:53:38
Back to CruiseResearch ActivitiesStationsMapUnderway DataData graphs

EquipmentUnitsComment
TimeDGPSUTC
LatitudeDGPSDM.mWGS84
LongitudeDGPSDM.mWGS84
HeadingGyrodeg 
SOGDGPSknotsSpeed over ground
COGDGPSdegCourse over ground
DepthEcho soundermeters200 kHz
Missing or incorrect values are displayed as -999
Navigation data collected by the RV Zeeleeuw from 2005-03-15 07:14:11 to 2005-03-15 13:03:22
                                                                                    Next 1000 lines
Time Latitude Longitude Heading SOG COG Depth
2005-03-15 07:14:20 51°13.597 2°56.093 115.8 1.4 293 7.1
2005-03-15 07:14:26 51°13.598 2°56.089 116.4 1.4 293 7
2005-03-15 07:14:31 51°13.599 2°56.084 117.3 1.8 293 7.6
2005-03-15 07:14:36 51°13.601 2°56.079 118.2 2.2 295 -999
2005-03-15 07:14:42 51°13.603 2°56.073 118.7 2.6 297 -999
2005-03-15 07:14:47 51°13.605 2°56.067 119.2 2.8 297 -999
2005-03-15 07:14:51 51°13.607 2°56.062 119.6 3.1 297 -999
2005-03-15 07:14:56 51°13.609 2°56.055 119.9 3.2 298 -999
2005-03-15 07:15:02 51°13.611 2°56.048 120.2 3.3 298 -999
2005-03-15 07:15:07 51°13.614 2°56.041 120.4 3.6 299 -999
2005-03-15 07:15:12 51°13.616 2°56.033 120.7 3.6 299 -999
2005-03-15 07:15:16 51°13.619 2°56.027 120.9 4 299 -999
2005-03-15 07:15:22 51°13.622 2°56.017 120.9 4 299 -999
2005-03-15 07:15:27 51°13.625 2°56.009 120.4 4.2 298 -999
2005-03-15 07:15:31 51°13.627 2°56.001 119.9 4.3 298 -999
2005-03-15 07:15:36 51°13.63 2°55.992 119.5 4.4 298 -999
2005-03-15 07:15:41 51°13.633 2°55.984 119 4.5 297 -999
2005-03-15 07:15:47 51°13.636 2°55.973 118.5 4.6 296 -999
2005-03-15 07:15:52 51°13.639 2°55.964 118.2 4.6 296 -999
2005-03-15 07:15:56 51°13.641 2°55.956 117.9 4.7 296 -999
2005-03-15 07:16:01 51°13.644 2°55.946 117.5 4.8 296 -999
2005-03-15 07:16:07 51°13.647 2°55.936 116.9 4.8 296 -999
2005-03-15 07:16:12 51°13.65 2°55.926 116.4 4.9 295 -999
2005-03-15 07:16:16 51°13.653 2°55.917 115.9 4.9 294 -999
2005-03-15 07:16:21 51°13.655 2°55.907 114.9 4.9 294 -999
2005-03-15 07:16:27 51°13.658 2°55.896 113.7 4.9 293 -999
2005-03-15 07:16:30 51°13.66 2°55.889 112.3 4.8 292 -999
2005-03-15 07:16:36 51°13.662 2°55.877 110.9 4.7 290 -999
2005-03-15 07:16:42 51°13.665 2°55.867 109.3 4.5 289 -999
2005-03-15 07:16:46 51°13.666 2°55.86 107.5 4.3 289 -999
2005-03-15 07:16:51 51°13.668 2°55.852 105.5 4.1 287 -999
2005-03-15 07:16:56 51°13.669 2°55.844 103.8 3.9 285 -999
2005-03-15 07:17:01 51°13.669 2°55.844 102.4 3.9 285 -999
2005-03-15 07:17:06 51°13.671 2°55.826 100.9 1.5 282 4.9
2005-03-15 07:17:11 51°13.672 2°55.819 99 3.8 281 5.2
2005-03-15 07:17:16 51°13.673 2°55.811 97.1 3.7 280 -999
2005-03-15 07:17:22 51°13.673 2°55.801 95.2 3.5 277 -999
2005-03-15 07:17:26 51°13.674 2°55.795 93.2 3.4 277 -999
2005-03-15 07:17:30 51°13.674 2°55.79 91.4 3.1 276 -999
2005-03-15 07:17:36 51°13.674 2°55.784 90.1 2.9 275 9.6
2005-03-15 07:17:40 51°13.674 2°55.781 87.4 1.8 276 9.5
2005-03-15 07:17:46 51°13.675 2°55.779 84.6 1.8 276 9.5
2005-03-15 07:17:51 51°13.676 2°55.779 81.2 1.8 276 9.5
2005-03-15 07:17:56 51°13.677 2°55.78 75.4 0.7 27 9.5
2005-03-15 07:18:01 51°13.678 2°55.782 68.8 1.3 42 9.6
2005-03-15 07:18:07 51°13.68 2°55.785 61.7 1.3 42 9.7
2005-03-15 07:18:11 51°13.683 2°55.788 54.3 2.2 37 9.8
2005-03-15 07:18:16 51°13.686 2°55.791 47.1 2.2 37 9.8
2005-03-15 07:18:21 51°13.69 2°55.793 40 2.6 29 9.8
2005-03-15 07:18:26 51°13.694 2°55.795 31.3 3.1 20 9.8
2005-03-15 07:18:31 51°13.7 2°55.797 25.5 3.2 16 9.8
2005-03-15 07:18:36 51°13.705 2°55.797 16.9 4.1 6 9.8
2005-03-15 07:18:41 51°13.712 2°55.795 7.8 4.1 6 9.8
2005-03-15 07:18:46 51°13.719 2°55.792 358.2 4.1 6 9.8
2005-03-15 07:18:51 51°13.726 2°55.785 347.5 5.6 332 9.7
2005-03-15 07:18:56 51°13.732 2°55.778 336.4 5.7 329 9.7
2005-03-15 07:19:00 51°13.736 2°55.77 325.2 5.5 314 9.7
2005-03-15 07:19:06 51°13.742 2°55.76 318 5.5 313 9.6
2005-03-15 07:19:11 51°13.747 2°55.75 315.1 5.5 313 9.6
2005-03-15 07:19:16 51°13.752 2°55.74 313.1 5.7 310 9.5
2005-03-15 07:19:21 51°13.759 2°55.727 312 5.7 310 9.5
2005-03-15 07:19:26 51°13.764 2°55.717 312 6.9 309 9.5
2005-03-15 07:19:31 51°13.771 2°55.704 312.8 7.2 310 9.5
2005-03-15 07:19:36 51°13.78 2°55.69 314.9 7.7 313 9.5
2005-03-15 07:19:41 51°13.785 2°55.682 318 8.1 317 9.5
2005-03-15 07:19:46 51°13.796 2°55.668 321.6 6.9 320 9.9
2005-03-15 07:19:51 51°13.806 2°55.658 325.8 6.4 323 9.5
2005-03-15 07:19:56 51°13.817 2°55.648 329.9 8.7 328 9.5
2005-03-15 07:20:01 51°13.829 2°55.637 332.8 8.9 329 9.5
2005-03-15 07:20:06 51°13.84 2°55.628 334.7 8.9 329 9.4
2005-03-15 07:20:10 51°13.849 2°55.62 336.1 9.3 333 9.5
2005-03-15 07:20:16 51°13.862 2°55.61 337.4 9.3 333 9.4
2005-03-15 07:20:21 51°13.874 2°55.601 338.3 9.3 333 9.4
2005-03-15 07:20:26 51°13.887 2°55.591 339.6 9.6 336 9.4
2005-03-15 07:20:30 51°13.897 2°55.583 339.7 9.8 335 9.4
2005-03-15 07:20:36 51°13.912 2°55.572 339.3 9.8 335 9.4
2005-03-15 07:20:40 51°13.922 2°55.565 339.2 10 335 9.4
2005-03-15 07:20:46 51°13.936 2°55.554 339.4 10 335 9.4
2005-03-15 07:20:51 51°13.95 2°55.544 339.7 10 335 9.4
2005-03-15 07:20:56 51°13.963 2°55.535 340 10.1 335 9.4
2005-03-15 07:21:01 51°13.975 2°55.526 340 10.1 335 9.4
2005-03-15 07:21:06 51°13.988 2°55.517 340.4 10.1 336 9.4
2005-03-15 07:21:11 51°14 2°55.508 340.2 10.1 336 9.5
2005-03-15 07:21:16 51°14.012 2°55.498 338.9 10.1 334 9.4
2005-03-15 07:21:20 51°14.023 2°55.491 338.9 10.1 335 9.4
2005-03-15 07:21:26 51°14.039 2°55.478 339.3 10.1 335 9.3
2005-03-15 07:21:31 51°14.052 2°55.469 339.6 10.1 335 9.2
2005-03-15 07:21:36 51°14.063 2°55.461 340.5 10.1 336 9.3
2005-03-15 07:21:42 51°14.079 2°55.45 340.9 10.1 336 9.3
2005-03-15 07:21:46 51°14.089 2°55.442 341.2 10.2 336 9.3
2005-03-15 07:21:50 51°14.1 2°55.434 340.9 10.3 335 9.4
2005-03-15 07:21:56 51°14.115 2°55.422 338.9 10.3 334 9.4
2005-03-15 07:22:01 51°14.129 2°55.411 338.6 10.5 334 9.5
2005-03-15 07:22:06 51°14.141 2°55.401 338.4 10.5 334 9.5
2005-03-15 07:22:11 51°14.154 2°55.391 338.2 10.7 333 10
2005-03-15 07:22:16 51°14.167 2°55.379 337.5 10.7 333 9.5
2005-03-15 07:22:20 51°14.179 2°55.368 335.7 10.8 330 9.5
2005-03-15 07:22:26 51°14.192 2°55.353 333.8 10.8 328 9.6
2005-03-15 07:22:31 51°14.206 2°55.338 332.2 10.8 327 10.1
2005-03-15 07:22:36 51°14.216 2°55.325 330.1 10.8 324 9.5
2005-03-15 07:22:40 51°14.226 2°55.313 327.1 10.8 322 9.5
2005-03-15 07:22:46 51°14.24 2°55.292 324.5 10.8 320 9.5
2005-03-15 07:22:50 51°14.249 2°55.278 322.1 10.9 316 9.5
2005-03-15 07:22:55 51°14.259 2°55.261 320.3 10.9 315 9.5
2005-03-15 07:23:00 51°14.27 2°55.243 319.3 10.9 315 9.5
2005-03-15 07:23:06 51°14.282 2°55.222 318.5 11 313 9.5
2005-03-15 07:23:11 51°14.292 2°55.203 317.1 11.1 312 9.5
2005-03-15 07:23:16 51°14.302 2°55.186 316.2 11.1 312 9.5
2005-03-15 07:23:21 51°14.313 2°55.164 315.4 11.1 312 9.9
2005-03-15 07:23:26 51°14.323 2°55.145 314.7 11.5 310 9.6
2005-03-15 07:23:30 51°14.331 2°55.129 314.7 11.6 310 9.6
2005-03-15 07:23:36 51°14.345 2°55.105 315.1 11.6 310 9.7
2005-03-15 07:23:41 51°14.355 2°55.086 315.7 11.8 312 9.7
2005-03-15 07:23:46 51°14.365 2°55.069 316.6 11.8 312 9.8
2005-03-15 07:23:51 51°14.377 2°55.047 317.1 11.9 312 10
2005-03-15 07:23:56 51°14.387 2°55.03 317.3 11.9 312 10.2
2005-03-15 07:24:00 51°14.397 2°55.014 317.3 12.2 313 10.2
2005-03-15 07:24:06 51°14.411 2°54.99 318.8 12.4 314 10.3
2005-03-15 07:24:11 51°14.425 2°54.969 320.8 12.4 314 10.4
2005-03-15 07:24:16 51°14.437 2°54.951 323.5 12.8 317 10.4
2005-03-15 07:24:21 51°14.452 2°54.931 325.6 12.8 319 10.3
2005-03-15 07:24:26 51°14.466 2°54.913 328.6 12.9 321 10.3
2005-03-15 07:24:31 51°14.478 2°54.896 329.5 13 320 10.1
2005-03-15 07:24:36 51°14.493 2°54.879 329.5 13 321 9.9
2005-03-15 07:24:41 51°14.508 2°54.859 330.2 13 321 9.8
2005-03-15 07:24:46 51°14.523 2°54.843 331.7 13 321 9.8
2005-03-15 07:24:51 51°14.538 2°54.826 333.3 13 321 9.7
2005-03-15 07:24:56 51°14.551 2°54.811 333.7 13.1 325 9.7
2005-03-15 07:25:00 51°14.563 2°54.798 333.6 13.1 325 9.6
2005-03-15 07:25:06 51°14.583 2°54.777 333.1 13.1 325 9.6
2005-03-15 07:25:10 51°14.596 2°54.766 335.2 13.1 327 9.5
2005-03-15 07:25:16 51°14.614 2°54.754 338.9 13 334 9.4
2005-03-15 07:25:21 51°14.633 2°54.745 344.1 12.9 337 9.3
2005-03-15 07:25:26 51°14.649 2°54.741 350.3 12.9 337 9.3
2005-03-15 07:25:31 51°14.666 2°54.737 357.5 12.6 352 9.2
2005-03-15 07:25:36 51°14.685 2°54.736 0.9 12.6 354 9.3
2005-03-15 07:25:40 51°14.699 2°54.735 4.7 12.6 359 9.3
2005-03-15 07:25:46 51°14.718 2°54.735 6.9 12.6 359 9.5
2005-03-15 07:25:50 51°14.732 2°54.737 8.9 12.7 1 9.3
2005-03-15 07:25:56 51°14.756 2°54.74 10.9 12.7 1 9.3
2005-03-15 07:26:01 51°14.773 2°54.744 12.5 12.7 7 9.2
2005-03-15 07:26:06 51°14.788 2°54.748 14.7 12.7 9 9.2
2005-03-15 07:26:10 51°14.802 2°54.753 17 12.7 9 9.1
2005-03-15 07:26:16 51°14.819 2°54.759 19.1 11.3 13 9
2005-03-15 07:26:20 51°14.831 2°54.766 21.9 11 14 9
2005-03-15 07:26:26 51°14.846 2°54.776 26 11 14 9.1
2005-03-15 07:26:30 51°14.854 2°54.782 30.4 9.1 25 9.1
2005-03-15 07:26:36 51°14.865 2°54.791 34.8 8.2 27 9.3
2005-03-15 07:26:42 51°14.876 2°54.8 36 8.2 27 9.2
2005-03-15 07:26:46 51°14.883 2°54.807 36.4 7.1 28 9.2
2005-03-15 07:26:51 51°14.891 2°54.813 36.3 6.6 27 9.2
2005-03-15 07:26:56 51°14.898 2°54.819 36.2 6.6 27 9.2
2005-03-15 07:27:01 51°14.905 2°54.824 36 6.6 27 9.1
2005-03-15 07:27:06 51°14.912 2°54.83 35.7 5.6 27 9.1
2005-03-15 07:27:11 51°14.919 2°54.835 35.3 5.4 25 9.1
2005-03-15 07:27:16 51°14.925 2°54.839 34.8 5.1 26 9.1
2005-03-15 07:27:21 51°14.931 2°54.844 34.5 5.1 26 9
2005-03-15 07:27:26 51°14.937 2°54.848 33.8 4.7 24 9
2005-03-15 07:27:31 51°14.942 2°54.851 33.1 4.5 22 9
2005-03-15 07:27:36 51°14.948 2°54.855 32.1 4.4 22 9.3
2005-03-15 07:27:41 51°14.954 2°54.858 31.5 4.4 22 9.1
2005-03-15 07:27:46 51°14.959 2°54.861 30.7 4 20 9
2005-03-15 07:27:51 51°14.964 2°54.864 30.1 3.9 18 9
2005-03-15 07:27:56 51°14.968 2°54.866 29 3.8 19 9
2005-03-15 07:28:01 51°14.974 2°54.868 28.4 3.6 18 8.9
2005-03-15 07:28:06 51°14.978 2°54.87 27.3 3.6 18 9
2005-03-15 07:28:10 51°14.982 2°54.872 26.7 3.4 16 8.9
2005-03-15 07:28:16 51°14.987 2°54.874 25.7 3.4 17 9.1
2005-03-15 07:28:20 51°14.99 2°54.875 24.5 3.2 12 9
2005-03-15 07:28:26 51°14.995 2°54.876 23.3 3.1 12 9.1
2005-03-15 07:28:30 51°14.999 2°54.878 22.5 3 12 9
2005-03-15 07:28:36 51°15.003 2°54.879 21.2 3 12 9
2005-03-15 07:28:41 51°15.008 2°54.88 20.2 3 12 8.9
2005-03-15 07:28:46 51°15.011 2°54.88 19.1 2.9 7 9
2005-03-15 07:28:51 51°15.015 2°54.881 17.9 2.9 7 9
2005-03-15 07:28:56 51°15.019 2°54.881 16.8 2.8 5 9
2005-03-15 07:29:01 51°15.023 2°54.881 15.6 2.8 5 9.1
2005-03-15 07:29:06 51°15.026 2°54.882 14.5 2.8 5 9.2
2005-03-15 07:29:10 51°15.03 2°54.882 13.5 2.6 2 8.9
2005-03-15 07:29:15 51°15.033 2°54.882 12.3 2.5 -999 9.1
2005-03-15 07:29:21 51°15.037 2°54.881 11.6 2.5 -999 9.1
2005-03-15 07:29:26 51°15.041 2°54.881 10.4 2.5 357 8.9
2005-03-15 07:29:31 51°15.044 2°54.881 9.5 2.5 357 8.8
2005-03-15 07:29:36 51°15.047 2°54.88 8.4 2.5 355 8.6
2005-03-15 07:29:41 51°15.051 2°54.88 7.3 2.6 356 8.6
2005-03-15 07:29:46 51°15.055 2°54.879 4.5 2.6 356 8.6
2005-03-15 07:29:50 51°15.059 2°54.878 1.3 2.6 356 8.6
2005-03-15 07:29:56 51°15.064 2°54.876 358.3 3 348 8.6
2005-03-15 07:30:00 51°15.067 2°54.874 356 3 348 8.6
2005-03-15 07:30:06 51°15.072 2°54.872 353.8 3.2 345 8.5
2005-03-15 07:30:10 51°15.076 2°54.869 351.7 3.2 345 8.5
2005-03-15 07:30:16 51°15.081 2°54.866 349.7 3.5 342 8.5
2005-03-15 07:30:21 51°15.086 2°54.863 347.7 3.5 342 8.5
2005-03-15 07:30:26 51°15.091 2°54.86 346 3.7 339 8.4
2005-03-15 07:30:30 51°15.095 2°54.857 344.7 4 337 8.5
2005-03-15 07:30:36 51°15.102 2°54.853 344 4.2 337 8.4
2005-03-15 07:30:40 51°15.108 2°54.848 343.6 5.1 336 8.4
2005-03-15 07:30:46 51°15.117 2°54.843 343.4 5.6 337 8.3
2005-03-15 07:30:50 51°15.123 2°54.838 343.3 5.6 337 8.2
2005-03-15 07:30:56 51°15.134 2°54.831 343.5 6.9 337 8.1
2005-03-15 07:31:01 51°15.144 2°54.824 343.9 7.7 338 8.1
2005-03-15 07:31:06 51°15.154 2°54.818 344.3 8.3 338 8.1
2005-03-15 07:31:11 51°15.167 2°54.81 345.1 8.9 339 8.1
2005-03-15 07:31:16 51°15.179 2°54.803 345.6 9.3 339 8.1
2005-03-15 07:31:21 51°15.194 2°54.794 345.8 9.3 339 8.1
2005-03-15 07:31:26 51°15.206 2°54.787 346.2 10.4 339 8.1
2005-03-15 07:31:31 51°15.22 2°54.778 346.3 10.4 339 8.1
2005-03-15 07:31:36 51°15.237 2°54.769 346.6 11 340 8.2
2005-03-15 07:31:40 51°15.249 2°54.762 346.7 11.4 340 8.2
2005-03-15 07:31:46 51°15.267 2°54.751 346.5 11.6 340 8.2
2005-03-15 07:31:51 51°15.282 2°54.742 346.3 11.8 340 8.3
2005-03-15 07:31:56 51°15.296 2°54.734 346.3 11.9 340 8.3
2005-03-15 07:32:00 51°15.309 2°54.727 346.6 12.2 340 8.4
2005-03-15 07:32:06 51°15.328 2°54.716 346.9 12.2 340 8.5
2005-03-15 07:32:11 51°15.345 2°54.707 347.1 12.2 340 8.5
2005-03-15 07:32:15 51°15.36 2°54.698 347.2 12.7 341 8.6
2005-03-15 07:32:20 51°15.375 2°54.689 347 12.7 341 8.6
2005-03-15 07:32:26 51°15.397 2°54.675 346.5 12.9 340 8.7
2005-03-15 07:32:30 51°15.41 2°54.666 344.8 12.9 340 8.7
2005-03-15 07:32:36 51°15.428 2°54.651 343 13.1 336 8.7
2005-03-15 07:32:41 51°15.444 2°54.636 339.5 13.1 336 8.8
2005-03-15 07:32:46 51°15.46 2°54.621 336.4 13.3 329 8.8
2005-03-15 07:32:50 51°15.472 2°54.607 333.9 13.4 326 8.8
2005-03-15 07:32:56 51°15.491 2°54.587 332 13.5 326 8.9
2005-03-15 07:33:01 51°15.507 2°54.567 330.9 13.5 324 9
2005-03-15 07:33:06 51°15.521 2°54.551 329.9 13.5 324 9
2005-03-15 07:33:11 51°15.536 2°54.531 329.1 13.7 322 9.2
2005-03-15 07:33:16 51°15.552 2°54.51 327.7 13.7 321 9.2
2005-03-15 07:33:21 51°15.566 2°54.49 326.8 13.7 319 9.2
2005-03-15 07:33:26 51°15.579 2°54.473 326.3 13.7 320 9.2
2005-03-15 07:33:31 51°15.596 2°54.451 326.3 13.8 320 9.3
2005-03-15 07:33:36 51°15.609 2°54.434 326.4 13.8 320 9.4
2005-03-15 07:33:40 51°15.623 2°54.416 326.8 13.8 321 9.4
2005-03-15 07:33:46 51°15.639 2°54.396 327.4 13.9 322 9.4
2005-03-15 07:33:51 51°15.656 2°54.375 327.8 13.9 322 9.6
2005-03-15 07:33:56 51°15.669 2°54.357 328.4 13.9 321 9.6
2005-03-15 07:34:01 51°15.686 2°54.336 328.1 13.9 321 9.8
2005-03-15 07:34:06 51°15.7 2°54.316 327.9 13.9 321 9.8
2005-03-15 07:34:11 51°15.716 2°54.297 327.9 13.9 321 9.8
2005-03-15 07:34:16 51°15.729 2°54.28 328 13.9 321 10
2005-03-15 07:34:19 51°15.74 2°54.266 328.2 14 321 9.9
2005-03-15 07:34:26 51°15.761 2°54.239 328.3 14 321 10.1
2005-03-15 07:34:31 51°15.776 2°54.219 328.4 14 321 10.3
2005-03-15 07:34:36 51°15.79 2°54.202 328.4 14 322 10.2
2005-03-15 07:34:40 51°15.804 2°54.184 328.5 14 321 10.2
2005-03-15 07:34:46 51°15.822 2°54.162 328.3 14 321 10.3
2005-03-15 07:34:51 51°15.835 2°54.144 328 13.9 321 10.3
2005-03-15 07:34:56 51°15.852 2°54.122 327.7 14 320 10.4
2005-03-15 07:35:00 51°15.862 2°54.108 327.5 13.9 321 10.4
2005-03-15 07:35:06 51°15.88 2°54.084 327.5 13.9 321 10.5
2005-03-15 07:35:11 51°15.895 2°54.065 327.6 13.9 320 10.6
2005-03-15 07:35:16 51°15.91 2°54.045 327.9 13.9 320 10.7
2005-03-15 07:35:21 51°15.926 2°54.024 328.1 13.9 321 10.6
2005-03-15 07:35:26 51°15.941 2°54.005 328.2 13.9 321 10.7
2005-03-15 07:35:30 51°15.953 2°53.989 328.2 13.9 321 10.8
2005-03-15 07:35:35 51°15.968 2°53.97 328.3 13.9 321 10.8
2005-03-15 07:35:40 51°15.983 2°53.95 328.5 13.9 322 10.8
2005-03-15 07:35:46 51°16.002 2°53.929 329.8 13.8 324 10.8
2005-03-15 07:35:50 51°16.014 2°53.915 331 13.8 324 10.9
2005-03-15 07:35:56 51°16.032 2°53.896 332.3 13.8 324 10.9
2005-03-15 07:36:00 51°16.044 2°53.882 332.5 13.8 325 10.9
2005-03-15 07:36:06 51°16.063 2°53.861 332.6 13.8 326 10.9
2005-03-15 07:36:10 51°16.077 2°53.846 332.6 13.8 325 10.9
2005-03-15 07:36:16 51°16.095 2°53.827 333 13.8 326 11
2005-03-15 07:36:20 51°16.107 2°53.813 333.4 13.8 326 11
2005-03-15 07:36:26 51°16.127 2°53.793 333.5 13.8 326 11
2005-03-15 07:36:30 51°16.141 2°53.778 333.6 13.8 327 11
2005-03-15 07:36:36 51°16.159 2°53.759 333.8 13.8 327 11.1
2005-03-15 07:36:40 51°16.173 2°53.744 333.8 13.8 327 11.1
2005-03-15 07:36:46 51°16.192 2°53.724 333.9 13.8 327 11.1
2005-03-15 07:36:51 51°16.208 2°53.707 334.2 13.8 327 11.2
2005-03-15 07:36:56 51°16.223 2°53.692 333.9 13.8 326 11.2
2005-03-15 07:37:01 51°16.24 2°53.673 333.4 13.8 326 11.2
2005-03-15 07:37:06 51°16.254 2°53.657 333 13.8 326 11.3
2005-03-15 07:37:11 51°16.272 2°53.638 332.9 13.8 326 11.3
2005-03-15 07:37:15 51°16.284 2°53.624 333.2 13.8 326 11.3
2005-03-15 07:37:21 51°16.304 2°53.604 333.5 13.9 327 11.3
2005-03-15 07:37:26 51°16.32 2°53.588 333.7 13.8 327 11.4
2005-03-15 07:37:31 51°16.334 2°53.573 333.7 13.8 327 11.4
2005-03-15 07:37:36 51°16.35 2°53.556 333.7 13.8 327 11.4
2005-03-15 07:37:41 51°16.368 2°53.537 333.5 13.9 327 11.5
2005-03-15 07:37:46 51°16.384 2°53.521 333.3 13.9 327 11.4
2005-03-15 07:37:51 51°16.4 2°53.504 333.3 13.9 327 11.5
2005-03-15 07:37:56 51°16.415 2°53.49 333.5 13.8 327 11.5
2005-03-15 07:38:01 51°16.433 2°53.472 333.8 13.8 328 11.5
2005-03-15 07:38:06 51°16.449 2°53.455 333.7 13.9 327 11.5
2005-03-15 07:38:10 51°16.462 2°53.442 333.4 13.8 327 11.5
2005-03-15 07:38:16 51°16.479 2°53.423 333.3 13.9 327 11.6
2005-03-15 07:38:21 51°16.496 2°53.406 333.1 13.9 327 11.6
2005-03-15 07:38:26 51°16.511 2°53.39 333 13.9 327 11.6
2005-03-15 07:38:30 51°16.526 2°53.375 333.1 13.8 327 11.6
2005-03-15 07:38:36 51°16.544 2°53.356 333.1 13.8 327 11.6
2005-03-15 07:38:39 51°16.555 2°53.344 332.4 13.9 325 11.7
2005-03-15 07:38:46 51°16.577 2°53.319 332.1 13.9 326 11.6
2005-03-15 07:38:51 51°16.591 2°53.304 331.9 13.9 325 11.5
2005-03-15 07:38:56 51°16.607 2°53.286 331.9 13.9 326 11.4
2005-03-15 07:39:00 51°16.621 2°53.271 332.4 13.8 326 11.4
2005-03-15 07:39:06 51°16.639 2°53.252 332.8 13.8 326 11.4
2005-03-15 07:39:11 51°16.656 2°53.234 333.1 13.9 326 11.3
2005-03-15 07:39:16 51°16.671 2°53.218 333.1 13.9 326 11.2
2005-03-15 07:39:21 51°16.688 2°53.199 332.8 13.8 326 11.1
2005-03-15 07:39:26 51°16.704 2°53.183 332.7 13.8 326 11.1
2005-03-15 07:39:30 51°16.717 2°53.169 333 13.8 327 11
2005-03-15 07:39:36 51°16.737 2°53.149 333.1 13.8 327 11
2005-03-15 07:39:41 51°16.752 2°53.132 333.1 13.8 326 10.9
2005-03-15 07:39:46 51°16.767 2°53.117 333 13.8 327 10.8
2005-03-15 07:39:51 51°16.783 2°53.1 333 13.8 327 10.6
2005-03-15 07:39:56 51°16.801 2°53.082 333.1 13.8 327 10.4
2005-03-15 07:40:01 51°16.817 2°53.066 333.1 13.8 327 10
2005-03-15 07:40:06 51°16.833 2°53.049 333.1 13.8 327 9.5
2005-03-15 07:40:10 51°16.845 2°53.036 333.1 13.7 327 8.6
2005-03-15 07:40:16 51°16.862 2°53.018 333.1 13.5 327 8.3
2005-03-15 07:40:21 51°16.879 2°53 332.9 13.5 327 8.2
2005-03-15 07:40:26 51°16.893 2°52.986 332.7 13.1 326 8
2005-03-15 07:40:31 51°16.909 2°52.968 332.6 13.1 327 8.1
2005-03-15 07:40:36 51°16.923 2°52.953 332.4 13.2 326 8
2005-03-15 07:40:41 51°16.94 2°52.935 332.1 13.2 326 8
2005-03-15 07:40:46 51°16.955 2°52.919 332 13.4 326 8.3
2005-03-15 07:40:52 51°16.972 2°52.901 332 13.5 326 8.4
2005-03-15 07:40:56 51°16.985 2°52.887 332.1 13.5 326 8.7
2005-03-15 07:41:00 51°16.997 2°52.874 332.1 13.6 326 8.8
2005-03-15 07:41:06 51°17.017 2°52.854 332.1 13.7 326 9
2005-03-15 07:41:11 51°17.034 2°52.835 332 13.8 327 9.1
2005-03-15 07:41:16 51°17.049 2°52.82 332.1 13.9 327 9.2
2005-03-15 07:41:21 51°17.065 2°52.803 332.1 14 327 9.4
2005-03-15 07:41:26 51°17.081 2°52.786 332.4 14 327 9.5
2005-03-15 07:41:30 51°17.096 2°52.771 332.9 14 328 9.6
2005-03-15 07:41:36 51°17.116 2°52.751 333.1 14 328 9.6
2005-03-15 07:41:40 51°17.127 2°52.74 333.3 14 327 9.4
2005-03-15 07:41:46 51°17.149 2°52.719 333.3 14 327 9.2
2005-03-15 07:41:51 51°17.165 2°52.702 333.1 13.8 328 9.3
2005-03-15 07:41:56 51°17.181 2°52.686 333.1 13.8 328 9.2
2005-03-15 07:42:01 51°17.197 2°52.669 333.3 13.8 327 9.2
2005-03-15 07:42:06 51°17.213 2°52.653 333.3 13.8 328 9.2
2005-03-15 07:42:11 51°17.229 2°52.637 333.2 13.8 327 9.3
2005-03-15 07:42:16 51°17.244 2°52.622 333 13.9 327 9.3
2005-03-15 07:42:21 51°17.262 2°52.603 332.9 13.8 327 9.3
2005-03-15 07:42:26 51°17.278 2°52.586 332.5 13.8 327 9.4
2005-03-15 07:42:31 51°17.294 2°52.569 332.5 13.9 326 9.4
2005-03-15 07:42:36 51°17.308 2°52.554 332.4 13.9 326 9.5
2005-03-15 07:42:40 51°17.321 2°52.539 332.1 13.9 325 9.5
2005-03-15 07:42:46 51°17.342 2°52.517 331.7 13.9 325 9.6
2005-03-15 07:42:50 51°17.354 2°52.503 331.9 13.9 325 9.6
2005-03-15 07:42:56 51°17.375 2°52.483 332.5 13.9 325 9.7
2005-03-15 07:43:00 51°17.388 2°52.471 334.5 13.9 330 9.8
2005-03-15 07:43:06 51°17.406 2°52.456 336.7 13.9 330 9.8
2005-03-15 07:43:10 51°17.422 2°52.443 338.6 13.9 333 9.9
2005-03-15 07:43:15 51°17.439 2°52.43 340.1 13.9 333 9.8
2005-03-15 07:43:20 51°17.455 2°52.419 341.1 13.9 333 9.9
2005-03-15 07:43:26 51°17.476 2°52.403 341.9 13.8 335 9.9
2005-03-15 07:43:30 51°17.492 2°52.392 342.3 13.9 336 9.9
2005-03-15 07:43:36 51°17.513 2°52.376 342.4 13.9 336 10
2005-03-15 07:43:40 51°17.527 2°52.365 342.4 13.8 335 9.9
2005-03-15 07:43:46 51°17.548 2°52.35 341.8 13.8 335 10
2005-03-15 07:43:51 51°17.563 2°52.337 341.3 13.8 334 9.9
2005-03-15 07:43:56 51°17.582 2°52.322 341.1 13.8 334 9.9
2005-03-15 07:44:00 51°17.594 2°52.313 340.9 13.8 334 9.8
2005-03-15 07:44:06 51°17.616 2°52.295 340.7 13.8 334 10
2005-03-15 07:44:11 51°17.632 2°52.283 340.7 13.8 333 9.9
2005-03-15 07:44:16 51°17.651 2°52.268 340.7 13.8 333 10
2005-03-15 07:44:21 51°17.666 2°52.257 340.8 13.8 334 9.9
2005-03-15 07:44:26 51°17.686 2°52.245 342.3 13.8 334 9.9
2005-03-15 07:44:31 51°17.702 2°52.236 344.7 13.8 340 9.9
2005-03-15 07:44:36 51°17.72 2°52.227 347.1 13.8 340 9.9
2005-03-15 07:44:40 51°17.737 2°52.219 349.1 13.7 344 9.9
2005-03-15 07:44:46 51°17.759 2°52.209 350.7 13.7 345 9.9
2005-03-15 07:44:50 51°17.773 2°52.203 351.4 13.7 345 9.9
2005-03-15 07:44:55 51°17.792 2°52.195 352 13.7 345 9.9
2005-03-15 07:45:02 51°17.815 2°52.185 351.9 13.7 345 10
2005-03-15 07:45:06 51°17.832 2°52.178 351.8 13.7 345 9.9
2005-03-15 07:45:10 51°17.847 2°52.171 351.7 13.7 345 9.9
2005-03-15 07:45:16 51°17.867 2°52.164 352.2 13.7 346 10
2005-03-15 07:45:21 51°17.886 2°52.157 353.6 13.7 348 9.9
2005-03-15 07:45:26 51°17.906 2°52.152 355.3 13.6 349 9.9
2005-03-15 07:45:30 51°17.921 2°52.147 356.7 13.6 350 10
2005-03-15 07:45:35 51°17.94 2°52.143 357.9 13.6 351 10
2005-03-15 07:45:41 51°17.962 2°52.137 358.5 13.6 351 10
2005-03-15 07:45:46 51°17.979 2°52.133 358.9 13.7 351 10
2005-03-15 07:45:51 51°18 2°52.128 359.3 13.7 351 10.1
2005-03-15 07:45:56 51°18.019 2°52.124 359.1 13.6 352 10.1
2005-03-15 07:46:01 51°18.037 2°52.122 359.3 13.6 354 10.1
2005-03-15 07:46:06 51°18.054 2°52.123 2.8 13.6 354 10.1
2005-03-15 07:46:10 51°18.071 2°52.124 7.2 13.6 2 10.1
2005-03-15 07:46:16 51°18.091 2°52.129 10.9 13.5 7 10.2
2005-03-15 07:46:21 51°18.112 2°52.134 14.5 13.5 8 10.2
2005-03-15 07:46:26 51°18.128 2°52.14 16.5 13.5 10 10.3
2005-03-15 07:46:30 51°18.145 2°52.145 17.9 13.4 11 10.4
2005-03-15 07:46:36 51°18.165 2°52.152 19 13.4 12 10.4
2005-03-15 07:46:40 51°18.18 2°52.157 19.7 13.5 12 10.4
2005-03-15 07:46:46 51°18.204 2°52.165 19.6 13.6 13 10.4
2005-03-15 07:46:51 51°18.222 2°52.172 19.1 13.5 12 10.5
2005-03-15 07:46:56 51°18.238 2°52.179 20.3 13.5 14 10.5
2005-03-15 07:47:00 51°18.252 2°52.186 22.8 13.5 17 10.5
2005-03-15 07:47:06 51°18.275 2°52.2 25.2 13.5 19 10.6
2005-03-15 07:47:10 51°18.289 2°52.208 26.9 13.5 21 10.6
2005-03-15 07:47:15 51°18.306 2°52.22 28.3 13.5 22 10.7
2005-03-15 07:47:20 51°18.322 2°52.23 29.5 13.5 23 10.7
2005-03-15 07:47:26 51°18.344 2°52.246 29.7 13.5 24 10.7
2005-03-15 07:47:30 51°18.357 2°52.257 31 13.5 27 10.7
2005-03-15 07:47:36 51°18.375 2°52.273 33.6 13.6 28 10.8
2005-03-15 07:47:40 51°18.388 2°52.286 36.2 13.5 30 10.8
2005-03-15 07:47:46 51°18.407 2°52.305 38.5 13.4 32 10.8
2005-03-15 07:47:51 51°18.424 2°52.324 40 13.4 34 10.8
2005-03-15 07:47:56 51°18.437 2°52.339 41.1 13.4 34 10.8
2005-03-15 07:48:01 51°18.454 2°52.358 41.6 13.4 35 10.8
2005-03-15 07:48:06 51°18.468 2°52.373 42 13.4 35 10.9
2005-03-15 07:48:11 51°18.485 2°52.392 42 13.4 35 10.9
2005-03-15 07:48:16 51°18.498 2°52.408 41.8 13.4 35 10.9
2005-03-15 07:48:21 51°18.513 2°52.425 42 13.4 35 10.9
2005-03-15 07:48:26 51°18.529 2°52.442 41.9 13.4 35 10.9
2005-03-15 07:48:30 51°18.541 2°52.455 41.3 13.4 35 11
2005-03-15 07:48:36 51°18.561 2°52.477 41.3 13.4 35 11
2005-03-15 07:48:41 51°18.575 2°52.492 41.2 13.4 34 11
2005-03-15 07:48:46 51°18.592 2°52.51 41.1 13.4 34 11.1
2005-03-15 07:48:51 51°18.606 2°52.525 40.6 13.6 33 11.1
2005-03-15 07:48:56 51°18.622 2°52.542 40.6 13.5 34 11.1
2005-03-15 07:49:01 51°18.639 2°52.56 40.6 13.5 33 11.1
2005-03-15 07:49:06 51°18.653 2°52.575 41.1 13.5 34 11.1
2005-03-15 07:49:11 51°18.669 2°52.592 41.3 13.5 34 11.1
2005-03-15 07:49:16 51°18.684 2°52.608 41.1 13.5 35 11.1
2005-03-15 07:49:22 51°18.702 2°52.63 41.6 13.5 35 11.2
2005-03-15 07:49:26 51°18.715 2°52.647 43.5 13.4 38 11.2
2005-03-15 07:49:31 51°18.728 2°52.664 44.9 13.4 38 11.3
2005-03-15 07:49:36 51°18.742 2°52.683 46.3 13.5 40 11.2
2005-03-15 07:49:40 51°18.753 2°52.699 47.3 13.4 41 11.3
2005-03-15 07:49:46 51°18.771 2°52.724 48.3 13.4 42 11.3
2005-03-15 07:49:51 51°18.785 2°52.744 48.6 13.4 42 11.3
2005-03-15 07:49:56 51°18.797 2°52.762 48.8 13.4 42 11.3
2005-03-15 07:50:01 51°18.813 2°52.784 48.6 13.4 41 11.3
2005-03-15 07:50:06 51°18.827 2°52.803 48.3 13.4 41 11.3
2005-03-15 07:50:11 51°18.84 2°52.823 48 13.4 41 11.3
2005-03-15 07:50:16 51°18.853 2°52.84 48.4 13.3 41 11.3
2005-03-15 07:50:20 51°18.864 2°52.856 48.2 13.3 41 11.3
2005-03-15 07:50:26 51°18.88 2°52.88 48.4 13.3 42 11.3
2005-03-15 07:50:31 51°18.895 2°52.902 48.5 13.3 42 11.4
2005-03-15 07:50:36 51°18.908 2°52.919 48.6 13.2 42 11.4
2005-03-15 07:50:40 51°18.918 2°52.935 48.3 13.3 42 11.4
2005-03-15 07:50:46 51°18.936 2°52.96 47.9 13.2 41 11.5
2005-03-15 07:50:51 51°18.95 2°52.979 47.9 13.2 41 11.4
2005-03-15 07:50:56 51°18.963 2°52.996 47.4 13.2 41 11.5
2005-03-15 07:51:01 51°18.978 2°53.018 47.7 13.2 41 11.5
2005-03-15 07:51:06 51°18.992 2°53.037 47.7 13.2 41 11.5
2005-03-15 07:51:11 51°19.004 2°53.054 47.9 13.2 41 11.5
2005-03-15 07:51:16 51°19.018 2°53.073 47.8 13.2 40 11.6
2005-03-15 07:51:21 51°19.033 2°53.094 47.8 13.1 41 11.6
2005-03-15 07:51:26 51°19.045 2°53.111 47.7 13.1 41 11.6
2005-03-15 07:51:30 51°19.056 2°53.127 48.2 13.2 41 11.6
2005-03-15 07:51:36 51°19.074 2°53.152 47.7 13.2 40 11.6
2005-03-15 07:51:41 51°19.088 2°53.17 47.7 13.1 42 11.6
2005-03-15 07:51:46 51°19.101 2°53.189 47.4 13.1 41 11.6
2005-03-15 07:51:51 51°19.115 2°53.208 47.5 13.1 41 11.6
2005-03-15 07:51:56 51°19.127 2°53.226 47.9 13.1 41 11.7
2005-03-15 07:52:01 51°19.142 2°53.247 48.5 13.1 42 11.7
2005-03-15 07:52:06 51°19.156 2°53.266 48.1 13.1 41 11.7
2005-03-15 07:52:11 51°19.17 2°53.285 48.1 13 42 11.7
2005-03-15 07:52:16 51°19.182 2°53.302 48.4 13.1 41 11.7
2005-03-15 07:52:21 51°19.196 2°53.322 48 13.1 41 11.8
2005-03-15 07:52:26 51°19.211 2°53.342 47.9 13.1 41 11.8
2005-03-15 07:52:31 51°19.224 2°53.361 47.5 13.1 41 11.9
2005-03-15 07:52:36 51°19.236 2°53.379 47.9 13.1 41 11.8
2005-03-15 07:52:41 51°19.252 2°53.4 47.9 13.1 42 11.9
2005-03-15 07:52:46 51°19.264 2°53.417 47.8 13.1 41 11.9
2005-03-15 07:52:51 51°19.28 2°53.437 47.3 13.1 41 11.9
2005-03-15 07:52:56 51°19.292 2°53.454 46.8 13.1 39 11.9
2005-03-15 07:53:00 51°19.305 2°53.471 46.9 13.1 39 11.9
2005-03-15 07:53:06 51°19.32 2°53.491 46.8 13.1 40 12
2005-03-15 07:53:11 51°19.335 2°53.511 46.4 13.1 39 12
2005-03-15 07:53:16 51°19.348 2°53.528 46.4 13.1 39 12
2005-03-15 07:53:20 51°19.36 2°53.545 46.7 13.1 40 12
2005-03-15 07:53:26 51°19.375 2°53.565 46.9 13.1 40 12.1
2005-03-15 07:53:31 51°19.39 2°53.586 47.1 13 41 12
2005-03-15 07:53:36 51°19.403 2°53.603 47.3 13 41 12
2005-03-15 07:53:40 51°19.414 2°53.618 47.2 13.1 40 12.1
2005-03-15 07:53:46 51°19.432 2°53.642 47.1 13.1 40 12.1
2005-03-15 07:53:50 51°19.443 2°53.657 46.8 13.1 40 12.2
2005-03-15 07:53:55 51°19.457 2°53.676 46.9 13.1 41 12.2
2005-03-15 07:54:01 51°19.473 2°53.698 46.9 13.1 40 12.2
2005-03-15 07:54:06 51°19.487 2°53.717 46.7 13.1 40 12.2
2005-03-15 07:54:10 51°19.498 2°53.732 46.8 13.1 41 12.2
2005-03-15 07:54:16 51°19.514 2°53.753 46.8 13.1 40 12.2
2005-03-15 07:54:21 51°19.529 2°53.773 46.8 13.1 40 12.2
2005-03-15 07:54:26 51°19.543 2°53.792 46.6 13.1 41 12.2
2005-03-15 07:54:31 51°19.555 2°53.809 46.7 13.2 40 12.2
2005-03-15 07:54:36 51°19.569 2°53.828 47.1 13.2 41 12.3
2005-03-15 07:54:41 51°19.584 2°53.85 47.8 13.1 41 12.3
2005-03-15 07:54:46 51°19.597 2°53.869 48.5 13.1 41 12.3
2005-03-15 07:54:50 51°19.608 2°53.885 48.8 13.1 41 12.3
2005-03-15 07:54:56 51°19.624 2°53.909 48.9 13.2 42 12.4
2005-03-15 07:55:00 51°19.634 2°53.922 48.7 13.1 42 12.3
2005-03-15 07:55:06 51°19.651 2°53.948 48.7 13.1 42 12.4
2005-03-15 07:55:11 51°19.664 2°53.967 49 13.1 42 12.5
2005-03-15 07:55:16 51°19.676 2°53.985 49.3 13 43 12.4
2005-03-15 07:55:20 51°19.687 2°54 49.3 13 43 12.4
2005-03-15 07:55:26 51°19.703 2°54.024 48.9 13.1 42 12.4
2005-03-15 07:55:30 51°19.715 2°54.041 49.2 13.1 43 12.4
2005-03-15 07:55:36 51°19.73 2°54.063 48.8 13 42 12.5
2005-03-15 07:55:40 51°19.742 2°54.08 48.3 13 42 12.5
2005-03-15 07:55:46 51°19.757 2°54.101 48.4 13.1 42 12.5
2005-03-15 07:55:51 51°19.771 2°54.122 48 13.1 41 12.5
2005-03-15 07:55:56 51°19.785 2°54.142 48.2 13.1 41 12.5
2005-03-15 07:56:01 51°19.799 2°54.16 47.8 13.1 41 12.5
2005-03-15 07:56:06 51°19.812 2°54.18 48 13.1 42 12.5
2005-03-15 07:56:12 51°19.827 2°54.201 48 13.1 42 12.4
2005-03-15 07:56:16 51°19.84 2°54.218 48 13.1 41 12.5
2005-03-15 07:56:21 51°19.854 2°54.237 47.7 13.1 41 12.5
2005-03-15 07:56:26 51°19.867 2°54.256 47.6 13.1 41 12.4
2005-03-15 07:56:31 51°19.879 2°54.273 48.1 13 42 12.3
2005-03-15 07:56:36 51°19.893 2°54.293 48.3 13 42 12.3
2005-03-15 07:56:41 51°19.906 2°54.312 48.6 13 42 12.2
2005-03-15 07:56:46 51°19.921 2°54.333 48.6 13 42 12
2005-03-15 07:56:51 51°19.933 2°54.351 48.6 13 42 12.2
2005-03-15 07:56:56 51°19.947 2°54.37 48.6 13 42 12.4
2005-03-15 07:57:01 51°19.96 2°54.39 48.5 13.1 42 13
2005-03-15 07:57:06 51°19.974 2°54.408 48.6 13.1 42 13
2005-03-15 07:57:11 51°19.988 2°54.43 48 13.1 43 13
2005-03-15 07:57:16 51°20.001 2°54.448 48.9 13.1 43 13.1
2005-03-15 07:57:21 51°20.015 2°54.469 48.9 13.1 43 13.1
2005-03-15 07:57:26 51°20.029 2°54.488 48.6 13.1 42 13.1
2005-03-15 07:57:31 51°20.041 2°54.506 48 13.1 41 13.2
2005-03-15 07:57:36 51°20.055 2°54.525 48.2 13.1 42 13.2
2005-03-15 07:57:41 51°20.07 2°54.546 48 13.1 41 13.2
2005-03-15 07:57:46 51°20.082 2°54.563 47.9 13.1 41 13.2
2005-03-15 07:57:51 51°20.096 2°54.582 47.8 13.1 41 13.2
2005-03-15 07:57:56 51°20.109 2°54.602 48.1 13.1 42 13.2
2005-03-15 07:58:00 51°20.12 2°54.617 48 13.1 41 13.3
2005-03-15 07:58:06 51°20.138 2°54.642 47.9 13.1 42 13.3
2005-03-15 07:58:11 51°20.151 2°54.662 48.4 13.1 43 13.2
2005-03-15 07:58:16 51°20.165 2°54.682 48.6 13.1 42 13.3
2005-03-15 07:58:21 51°20.178 2°54.7 48.6 13.1 42 13.2
2005-03-15 07:58:26 51°20.192 2°54.72 48 13.2 41 13.2
2005-03-15 07:58:31 51°20.206 2°54.739 47.9 13.2 41 13.4
2005-03-15 07:58:36 51°20.22 2°54.759 48.1 13.2 41 13.3
2005-03-15 07:58:41 51°20.232 2°54.775 47.7 13.1 42 13.3
2005-03-15 07:58:46 51°20.245 2°54.795 48 13.1 42 13.3
2005-03-15 07:58:51 51°20.259 2°54.814 48.4 13.1 42 13.3
2005-03-15 07:58:56 51°20.272 2°54.834 48.6 13.1 42 13.2
2005-03-15 07:59:00 51°20.283 2°54.85 49 13.1 42 13.3
2005-03-15 07:59:06 51°20.299 2°54.873 49 13.1 42 13.2
2005-03-15 07:59:11 51°20.314 2°54.895 48.6 13.1 42 13.3
2005-03-15 07:59:16 51°20.326 2°54.912 48.7 13.2 43 13.2
2005-03-15 07:59:20 51°20.337 2°54.928 48.6 13.2 42 13.3
2005-03-15 07:59:26 51°20.353 2°54.951 48 13.2 41 13.3
2005-03-15 07:59:31 51°20.369 2°54.973 47.9 13.2 42 13.4
2005-03-15 07:59:36 51°20.381 2°54.991 48.2 13.2 42 13.4
2005-03-15 07:59:41 51°20.396 2°55.012 48.6 13.3 42 13.4
2005-03-15 07:59:46 51°20.408 2°55.03 48.6 13.2 42 13.4
2005-03-15 07:59:51 51°20.423 2°55.052 48.4 13.3 42 13.4
2005-03-15 07:59:56 51°20.435 2°55.069 48.1 13.3 42 13.4
2005-03-15 08:00:01 51°20.449 2°55.089 48.1 13.2 43 13.5
2005-03-15 08:00:06 51°20.463 2°55.108 48.4 13.3 42 13.4
2005-03-15 08:00:10 51°20.475 2°55.126 48.6 13.3 42 13.6
2005-03-15 08:00:16 51°20.49 2°55.148 48.9 13.2 42 13.4
2005-03-15 08:00:21 51°20.505 2°55.169 48.4 13.2 41 13.4
2005-03-15 08:00:26 51°20.519 2°55.189 48.5 13.3 42 13.6
2005-03-15 08:00:30 51°20.53 2°55.205 48.4 13.3 41 13.5
2005-03-15 08:00:36 51°20.545 2°55.226 48.3 13.3 41 13.5
2005-03-15 08:00:41 51°20.559 2°55.245 48 13.3 41 13.6
2005-03-15 08:00:46 51°20.574 2°55.267 48.1 13.3 41 13.6
2005-03-15 08:00:51 51°20.588 2°55.286 48 13.3 42 13.6
2005-03-15 08:00:56 51°20.602 2°55.306 48 13.3 42 13.6
2005-03-15 08:01:01 51°20.614 2°55.323 47.9 13.3 41 13.6
2005-03-15 08:01:06 51°20.628 2°55.343 47.4 13.3 41 13.7
2005-03-15 08:01:11 51°20.642 2°55.362 47.4 13.3 41 13.7
2005-03-15 08:01:16 51°20.656 2°55.381 47.5 13.3 41 13.8
2005-03-15 08:01:20 51°20.667 2°55.397 47.8 13.3 41 13.8
2005-03-15 08:01:26 51°20.683 2°55.421 48.4 13.3 41 13.8
2005-03-15 08:01:31 51°20.698 2°55.442 48.4 13.3 42 13.8
2005-03-15 08:01:36 51°20.71 2°55.46 48.6 13.3 43 13.8
2005-03-15 08:01:40 51°20.721 2°55.476 48.9 13.2 43 13.8
2005-03-15 08:01:46 51°20.737 2°55.5 48.9 13.2 42 13.8
2005-03-15 08:01:51 51°20.752 2°55.521 49.3 13.2 43 13.9
2005-03-15 08:01:56 51°20.764 2°55.539 48.4 13.2 43 13.9
2005-03-15 08:02:01 51°20.78 2°55.56 48.6 13.2 42 13.9
2005-03-15 08:02:06 51°20.792 2°55.578 48.5 13.2 42 13.9
2005-03-15 08:02:11 51°20.807 2°55.599 47.9 13.2 41 14
2005-03-15 08:02:16 51°20.819 2°55.617 48.4 13.2 41 14
2005-03-15 08:02:21 51°20.833 2°55.636 48.3 13.3 41 14
2005-03-15 08:02:26 51°20.847 2°55.656 48.4 13.3 42 14
2005-03-15 08:02:30 51°20.859 2°55.674 48.5 13.3 42 14
2005-03-15 08:02:36 51°20.874 2°55.695 48.8 13.3 42 14
2005-03-15 08:02:41 51°20.889 2°55.717 48.6 13.3 42 14
2005-03-15 08:02:46 51°20.903 2°55.737 48.7 13.4 42 14
2005-03-15 08:02:50 51°20.914 2°55.753 48.5 13.4 42 14.1
2005-03-15 08:02:56 51°20.929 2°55.774 48.5 13.4 42 14.1
2005-03-15 08:03:01 51°20.942 2°55.794 48.5 13.4 42 14
2005-03-15 08:03:06 51°20.957 2°55.816 48.6 13.4 42 14.1
2005-03-15 08:03:11 51°20.971 2°55.836 48.7 13.3 42 14.1
2005-03-15 08:03:16 51°20.985 2°55.857 48.9 13.3 42 14.1
2005-03-15 08:03:21 51°20.997 2°55.874 49.1 13.3 43 14.2
2005-03-15 08:03:26 51°21.012 2°55.896 48.6 13.3 42 14.1
2005-03-15 08:03:30 51°21.023 2°55.912 48.6 13.3 42 14.2
2005-03-15 08:03:36 51°21.038 2°55.933 48 13.3 41 14.2
2005-03-15 08:03:40 51°21.049 2°55.949 48 13.3 42 14.2
2005-03-15 08:03:46 51°21.067 2°55.974 48.2 13.4 42 14.2
2005-03-15 08:03:50 51°21.078 2°55.99 48.3 13.4 42 14.2
2005-03-15 08:03:56 51°21.093 2°56.012 47.9 13.3 41 14.2
2005-03-15 08:04:01 51°21.107 2°56.031 47.9 13.2 42 14.2
2005-03-15 08:04:06 51°21.122 2°56.052 48 13.2 42 14.4
2005-03-15 08:04:10 51°21.133 2°56.067 47.8 13.2 41 14.3
2005-03-15 08:04:16 51°21.147 2°56.09 48.7 13.2 42 14.3
2005-03-15 08:04:20 51°21.158 2°56.105 48.9 13.2 42 14.4
2005-03-15 08:04:26 51°21.174 2°56.13 49.9 13.2 45 14.4
2005-03-15 08:04:30 51°21.186 2°56.148 49.8 13.2 42 14.4
2005-03-15 08:04:35 51°21.199 2°56.168 50.1 13.2 45 14.4
2005-03-15 08:04:41 51°21.215 2°56.192 49.7 13.2 43 14.4
2005-03-15 08:04:46 51°21.228 2°56.209 50.1 13.2 43 14.4
2005-03-15 08:04:51 51°21.241 2°56.23 49.5 13.2 43 14.4
2005-03-15 08:04:56 51°21.255 2°56.249 50.1 13.2 43 14.5
2005-03-15 08:05:02 51°21.27 2°56.273 49.5 13.2 43 14.5
2005-03-15 08:05:06 51°21.283 2°56.291 50 13.2 43 14.5
2005-03-15 08:05:10 51°21.294 2°56.307 50.2 13.3 42 14.5
2005-03-15 08:05:16 51°21.309 2°56.329 50.2 13.3 43 14.6
2005-03-15 08:05:21 51°21.322 2°56.349 50.4 13.3 42 14.6
2005-03-15 08:05:26 51°21.337 2°56.371 50 13.3 43 14.6
2005-03-15 08:05:30 51°21.348 2°56.387 50.6 13.3 43 14.6
2005-03-15 08:05:36 51°21.363 2°56.409 50.4 13.3 43 14.7
2005-03-15 08:05:40 51°21.373 2°56.425 50.7 13.2 44 14.7
2005-03-15 08:05:46 51°21.39 2°56.452 50.8 13.2 44 14.7
2005-03-15 08:05:51 51°21.402 2°56.47 51.2 13.2 44 14.7
2005-03-15 08:05:56 51°21.415 2°56.49 50.8 13.2 43 14.8
2005-03-15 08:06:01 51°21.43 2°56.512 51.2 13.2 45 14.7
2005-03-15 08:06:06 51°21.443 2°56.533 51.3 13.2 43 14.8
2005-03-15 08:06:11 51°21.456 2°56.553 51.6 13.2 43 14.8
2005-03-15 08:06:16 51°21.468 2°56.571 51.5 13.2 43 14.8
2005-03-15 08:06:20 51°21.48 2°56.589 50.5 13.2 43 14.8
2005-03-15 08:06:26 51°21.496 2°56.612 50.3 13.2 42 14.9
2005-03-15 08:06:31 51°21.51 2°56.632 50.2 13.2 43 14.8
2005-03-15 08:06:36 51°21.522 2°56.649 49.8 13.2 42 14.9
2005-03-15 08:06:40 51°21.533 2°56.666 50.1 13.3 43 14.9
2005-03-15 08:06:46 51°21.549 2°56.689 50 13.3 42 14.9
2005-03-15 08:06:50 51°21.561 2°56.707 49.6 13.2 42 14.9
2005-03-15 08:06:55 51°21.575 2°56.727 50.6 13.2 43 14.9
2005-03-15 08:07:01 51°21.589 2°56.749 50.6 13.2 43 15
2005-03-15 08:07:06 51°21.603 2°56.769 50.4 13.2 43 15
2005-03-15 08:07:10 51°21.615 2°56.787 50.5 13.2 43 15
2005-03-15 08:07:16 51°21.629 2°56.809 50.5 13.2 43 15.1
2005-03-15 08:07:21 51°21.643 2°56.829 50.5 13.2 43 15.2
2005-03-15 08:07:26 51°21.658 2°56.85 50.3 13.2 43 15.1
2005-03-15 08:07:31 51°21.67 2°56.869 49.8 13.2 42 15.3
2005-03-15 08:07:36 51°21.683 2°56.888 50.1 13.2 43 15.2
2005-03-15 08:07:42 51°21.699 2°56.912 50 13.3 43 15.3
2005-03-15 08:07:46 51°21.711 2°56.931 50.4 13.2 44 15.3
2005-03-15 08:07:50 51°21.722 2°56.947 51 13.3 43 15.3
2005-03-15 08:07:56 51°21.737 2°56.969 50.6 13.3 43 15.3
2005-03-15 08:08:01 51°21.75 2°56.989 50.9 13.2 44 15.3
2005-03-15 08:08:06 51°21.763 2°57.01 51.4 13.3 44 15.3
2005-03-15 08:08:11 51°21.777 2°57.03 51 13.3 43 15.4
2005-03-15 08:08:16 51°21.79 2°57.05 50.8 13.3 43 15.4
2005-03-15 08:08:20 51°21.801 2°57.066 50.4 13.4 43 15.4
2005-03-15 08:08:26 51°21.819 2°57.092 50.3 13.4 43 15.4
2005-03-15 08:08:30 51°21.83 2°57.108 50 13.4 43 15.4
2005-03-15 08:08:36 51°21.845 2°57.131 50.1 13.4 43 15.4
2005-03-15 08:08:41 51°21.858 2°57.151 50 13.4 42 15.5
2005-03-15 08:08:46 51°21.873 2°57.172 49.8 13.3 43 15.4
2005-03-15 08:08:51 51°21.885 2°57.191 50.2 13.3 44 15.4
2005-03-15 08:08:56 51°21.899 2°57.211 50.5 13.3 43 15.5
2005-03-15 08:09:01 51°21.912 2°57.231 50.2 13.4 44 15.4
2005-03-15 08:09:06 51°21.925 2°57.252 50.3 13.4 43 15.4
2005-03-15 08:09:11 51°21.939 2°57.273 50.9 13.4 44 15.4
2005-03-15 08:09:16 51°21.953 2°57.293 50.2 13.4 44 15.5
2005-03-15 08:09:21 51°21.966 2°57.313 50.3 13.4 44 15.6
2005-03-15 08:09:26 51°21.981 2°57.335 50.4 13.4 43 15.6
2005-03-15 08:09:30 51°21.992 2°57.351 50.1 13.4 43 15.7
2005-03-15 08:09:36 51°22.007 2°57.374 50.1 13.3 43 15.8
2005-03-15 08:09:41 51°22.02 2°57.394 50.9 13.3 44 15.8
2005-03-15 08:09:46 51°22.035 2°57.417 51.1 13.3 44 15.9
2005-03-15 08:09:50 51°22.045 2°57.433 51 13.3 44 15.9
2005-03-15 08:09:56 51°22.06 2°57.456 51.2 13.3 45 15.9
2005-03-15 08:10:00 51°22.071 2°57.472 51 13.4 43 15.9
2005-03-15 08:10:06 51°22.088 2°57.499 50.3 13.4 43 15.9
2005-03-15 08:10:11 51°22.101 2°57.517 50.4 13.4 43 16
2005-03-15 08:10:16 51°22.115 2°57.537 50 13.4 43 16
2005-03-15 08:10:21 51°22.13 2°57.559 49.5 13.4 43 16.1
2005-03-15 08:10:26 51°22.143 2°57.58 49.7 13.4 43 16.1
2005-03-15 08:10:31 51°22.157 2°57.6 49.8 13.4 43 16.1
2005-03-15 08:10:36 51°22.169 2°57.618 49.6 13.4 43 16.1
2005-03-15 08:10:41 51°22.184 2°57.64 50 13.4 43 16.1
2005-03-15 08:10:46 51°22.197 2°57.66 50.5 13.4 43 16.2
2005-03-15 08:10:51 51°22.211 2°57.68 50 13.4 43 16.2
2005-03-15 08:10:56 51°22.223 2°57.699 49.8 13.4 43 16.2
2005-03-15 08:11:00 51°22.234 2°57.715 50.1 13.4 44 16.3
2005-03-15 08:11:06 51°22.25 2°57.74 50.6 13.5 44 16.3
2005-03-15 08:11:11 51°22.265 2°57.762 50.9 13.4 44 16.3
2005-03-15 08:11:16 51°22.277 2°57.781 50.6 13.4 44 16.3
2005-03-15 08:11:20 51°22.288 2°57.797 50.5 13.4 43 16.4
2005-03-15 08:11:26 51°22.304 2°57.821 50 13.4 43 16.3
2005-03-15 08:11:31 51°22.318 2°57.843 50.1 13.4 44 16.4
2005-03-15 08:11:36 51°22.331 2°57.862 50.2 13.4 44 16.4
2005-03-15 08:11:41 51°22.346 2°57.884 50 13.4 43 16.5
2005-03-15 08:11:46 51°22.359 2°57.904 49.9 13.3 43 16.5
2005-03-15 08:11:51 51°22.371 2°57.923 50.2 13.4 43 16.5
2005-03-15 08:11:56 51°22.386 2°57.945 50.3 13.4 43 16.5
2005-03-15 08:12:01 51°22.399 2°57.965 50.3 13.4 43 16.5
2005-03-15 08:12:06 51°22.412 2°57.984 50.4 13.4 44 16.5
2005-03-15 08:12:11 51°22.426 2°58.006 50.3 13.4 43 16.6
2005-03-15 08:12:16 51°22.439 2°58.024 50.5 13.4 44 16.5
2005-03-15 08:12:20 51°22.449 2°58.041 50.1 13.4 43 16.6
2005-03-15 08:12:26 51°22.467 2°58.068 50 13.4 43 16.5
2005-03-15 08:12:30 51°22.478 2°58.085 50 13.4 43 16.6
2005-03-15 08:12:36 51°22.493 2°58.107 50 13.4 43 16.5
2005-03-15 08:12:40 51°22.503 2°58.124 50.7 13.3 44 16.6
2005-03-15 08:12:46 51°22.521 2°58.15 50.8 13.3 43 16.6
2005-03-15 08:12:51 51°22.533 2°58.169 50.6 13.4 44 16.6
2005-03-15 08:12:56 51°22.547 2°58.19 50.3 13.4 44 16.6
2005-03-15 08:13:01 51°22.562 2°58.214 50.7 13.4 45 16.6
2005-03-15 08:13:06 51°22.575 2°58.233 51.2 13.4 45 16.7
2005-03-15 08:13:10 51°22.584 2°58.248 50.6 13.4 44 16.7
2005-03-15 08:13:16 51°22.6 2°58.273 50.7 13.4 44 16.7
2005-03-15 08:13:20 51°22.611 2°58.291 50.8 13.4 45 16.8
2005-03-15 08:13:26 51°22.627 2°58.316 51.1 13.4 45 16.8
2005-03-15 08:13:32 51°22.643 2°58.34 51.5 13.4 45 16.8
2005-03-15 08:13:36 51°22.653 2°58.357 51.5 13.4 45 16.8
2005-03-15 08:13:40 51°22.664 2°58.373 51.5 13.4 44 16.8
2005-03-15 08:13:46 51°22.679 2°58.397 51.1 13.4 44 16.8
2005-03-15 08:13:51 51°22.694 2°58.419 50.9 13.3 43 16.8
2005-03-15 08:13:56 51°22.706 2°58.437 50.8 13.3 43 16.8
2005-03-15 08:14:01 51°22.72 2°58.457 50.4 13.3 44 16.8
2005-03-15 08:14:06 51°22.735 2°58.479 50 13.3 44 16.8
2005-03-15 08:14:10 51°22.746 2°58.496 50 13.4 43 16.9
2005-03-15 08:14:15 51°22.759 2°58.516 49.7 13.4 43 16.8
2005-03-15 08:14:20 51°22.772 2°58.534 49.5 13.4 43 16.9
2005-03-15 08:14:26 51°22.79 2°58.56 49.4 13.4 43 16.9
2005-03-15 08:14:31 51°22.803 2°58.58 49.2 13.4 42 16.9
2005-03-15 08:14:36 51°22.815 2°58.599 49.6 13.4 43 16.9
2005-03-15 08:14:40 51°22.828 2°58.618 50.3 13.5 43 17
2005-03-15 08:14:46 51°22.845 2°58.643 50.4 13.5 43 17
2005-03-15 08:14:51 51°22.859 2°58.663 50.5 13.5 43 16.9
2005-03-15 08:14:56 51°22.871 2°58.682 50.1 13.5 43 17
2005-03-15 08:15:00 51°22.882 2°58.698 50 13.5 43 17
2005-03-15 08:15:06 51°22.9 2°58.724 49.8 13.5 43 16.9
2005-03-15 08:15:11 51°22.913 2°58.742 49.3 13.5 42 17
2005-03-15 08:15:16 51°22.926 2°58.763 49.4 13.5 42 17
2005-03-15 08:15:20 51°22.937 2°58.779 49.9 13.5 42 17.1
2005-03-15 08:15:26 51°22.955 2°58.806 50 13.5 43 17.1
2005-03-15 08:15:31 51°22.968 2°58.826 50.4 13.4 43 17.1
2005-03-15 08:15:36 51°22.98 2°58.844 50.1 13.4 43 17.1
2005-03-15 08:15:41 51°22.995 2°58.866 50 13.4 43 17.1
2005-03-15 08:15:46 51°23.007 2°58.885 50.2 13.5 44 17.1
2005-03-15 08:15:50 51°23.019 2°58.904 50.8 13.5 44 17.2
2005-03-15 08:15:55 51°23.033 2°58.924 50.9 13.4 44 17.1
2005-03-15 08:16:01 51°23.049 2°58.949 50.9 13.4 44 17
2005-03-15 08:16:06 51°23.061 2°58.968 50.8 13.4 44 17.2
2005-03-15 08:16:10 51°23.074 2°58.986 50.5 13.4 44 17.1
2005-03-15 08:16:16 51°23.091 2°59.011 49.7 13.5 42 17
2005-03-15 08:16:21 51°23.104 2°59.031 49.7 13.5 43 17.2
2005-03-15 08:16:26 51°23.117 2°59.049 49.6 13.4 42 17
2005-03-15 08:16:31 51°23.132 2°59.071 49.3 13.5 42 17.3
2005-03-15 08:16:36 51°23.144 2°59.089 49.6 13.4 43 17.1
2005-03-15 08:16:41 51°23.158 2°59.11 49.5 13.5 43 17.2
2005-03-15 08:16:46 51°23.171 2°59.13 49.6 13.5 44 17.2
2005-03-15 08:16:51 51°23.184 2°59.151 50.6 13.5 44 17
2005-03-15 08:16:56 51°23.198 2°59.173 51.8 13.5 44 17.1
2005-03-15 08:17:01 51°23.212 2°59.196 51.9 13.5 44 17.1
2005-03-15 08:17:06 51°23.225 2°59.217 52.1 13.5 44 17
2005-03-15 08:17:11 51°23.239 2°59.238 51.9 13.5 44 16.9
2005-03-15 08:17:16 51°23.25 2°59.258 51.5 13.5 44 17.1
2005-03-15 08:17:21 51°23.263 2°59.279 52.2 -999 -999 17.2
2005-03-15 08:17:26 51°23.277 2°59.303 53.1 -999 -999 17.3
2005-03-15 08:17:30 51°23.288 2°59.32 53.3 13.5 46 17.3
2005-03-15 08:17:36 51°23.302 2°59.344 52.8 13.5 46 17.3
2005-03-15 08:17:41 51°23.315 2°59.365 52.9 13.5 46 17.3
2005-03-15 08:17:46 51°23.329 2°59.388 52.9 13.5 46 17.4
2005-03-15 08:17:50 51°23.339 2°59.405 53 13.5 47 17.5
2005-03-15 08:17:56 51°23.353 2°59.429 53 13.5 47 17.5
2005-03-15 08:17:59 51°23.362 2°59.444 53.1 13.5 46 17.5
2005-03-15 08:18:06 51°23.379 2°59.472 52.9 13.5 46 17.5
2005-03-15 08:18:10 51°23.391 2°59.491 52.7 13.5 46 17.5
2005-03-15 08:18:16 51°23.406 2°59.515 52.9 13.6 46 17.4
2005-03-15 08:18:21 51°23.42 2°59.539 52.3 13.6 45 17.3
2005-03-15 08:18:26 51°23.432 2°59.558 52.5 13.6 46 17.4
2005-03-15 08:18:30 51°23.444 2°59.578 52.5 13.6 46 17.5
2005-03-15 08:18:36 51°23.458 2°59.601 52.2 13.6 46 17.6
2005-03-15 08:18:41 51°23.473 2°59.625 51.7 13.6 44 17.6
2005-03-15 08:18:46 51°23.485 2°59.643 51.2 13.6 45 17.4
2005-03-15 08:18:52 51°23.502 2°59.669 51.1 13.6 45 17.3
2005-03-15 08:18:56 51°23.512 2°59.687 51.4 13.6 45 17.3
2005-03-15 08:19:01 51°23.527 2°59.71 51.9 13.6 45 17.3
2005-03-15 08:19:06 51°23.54 2°59.732 52.2 13.6 45 17.4
2005-03-15 08:19:11 51°23.553 2°59.754 52.4 13.6 46 17.4
2005-03-15 08:19:16 51°23.565 2°59.773 52.4 13.6 47 17.5
2005-03-15 08:19:20 51°23.577 2°59.792 52.5 13.5 46 17.5
2005-03-15 08:19:26 51°23.592 2°59.818 52.6 13.5 46 17.6
2005-03-15 08:19:31 51°23.605 2°59.839 52.5 13.6 46 17.7
2005-03-15 08:19:36 51°23.617 2°59.859 52.2 13.6 46 17.7
2005-03-15 08:19:41 51°23.63 2°59.88 52.3 13.5 46 17.6
2005-03-15 08:19:46 51°23.643 2°59.902 52.2 13.5 46 17.6
2005-03-15 08:19:51 51°23.658 2°59.925 51.7 13.5 46 17.5
2005-03-15 08:19:56 51°23.67 2°59.944 52.6 13.5 47 17.5
2005-03-15 08:20:00 51°23.682 2°59.964 52 13.5 46 17.5
2005-03-15 08:20:06 51°23.696 2°59.987 51.7 13.5 46 17.5
2005-03-15 08:20:10 51°23.708 3°0.006 52.2 13.5 45 17.5
2005-03-15 08:20:16 51°23.722 3°0.029 52 13.4 45 17.6
2005-03-15 08:20:20 51°23.733 3°0.046 51.5 13.5 46 17.6
2005-03-15 08:20:26 51°23.75 3°0.074 51.6 13.5 45 17.6
2005-03-15 08:20:30 51°23.76 3°0.091 52.2 13.4 46 17.7
2005-03-15 08:20:36 51°23.774 3°0.114 52.3 13.4 46 17.7
2005-03-15 08:20:40 51°23.785 3°0.131 52.5 13.5 46 17.7
2005-03-15 08:20:46 51°23.802 3°0.16 52.3 13.5 46 17.8
2005-03-15 08:20:50 51°23.812 3°0.177 52.3 13.5 46 17.7
2005-03-15 08:20:55 51°23.825 3°0.198 52.2 13.5 46 17.7
2005-03-15 08:21:01 51°23.841 3°0.224 52 13.5 46 17.5
2005-03-15 08:21:06 51°23.854 3°0.245 52.2 13.4 45 17.3
2005-03-15 08:21:11 51°23.867 3°0.267 52.8 13.4 45 17.4
2005-03-15 08:21:16 51°23.878 3°0.286 52.3 13.4 45 17.4
2005-03-15 08:21:21 51°23.892 3°0.31 52.2 13.4 46 17.4
2005-03-15 08:21:26 51°23.905 3°0.331 52.5 13.4 46 17.2
2005-03-15 08:21:30 51°23.916 3°0.348 52.5 13.4 46 17.2
2005-03-15 08:21:35 51°23.928 3°0.37 52.6 13.3 47 17.1
2005-03-15 08:21:41 51°23.942 3°0.394 52.8 13.4 47 17.1
2005-03-15 08:21:47 51°23.958 3°0.419 53.1 13.4 47 17.2
2005-03-15 08:21:50 51°23.966 3°0.434 52.9 13.4 47 17.1
2005-03-15 08:21:56 51°23.98 3°0.458 52.8 13.4 46 17
2005-03-15 08:22:01 51°23.994 3°0.479 52.4 13.4 47 17
2005-03-15 08:22:06 51°24.008 3°0.502 51.9 13.4 45 16.9
2005-03-15 08:22:10 51°24.017 3°0.517 51.7 13.4 46 16.8
2005-03-15 08:22:16 51°24.032 3°0.543 52 13.4 46 16.8
2005-03-15 08:22:21 51°24.046 3°0.567 52.2 13.3 47 16.8
2005-03-15 08:22:26 51°24.058 3°0.586 52.5 13.3 47 16.7
2005-03-15 08:22:30 51°24.069 3°0.605 52.8 13.3 46 16.7
2005-03-15 08:22:36 51°24.084 3°0.628 51.8 13.4 46 16.6
2005-03-15 08:22:41 51°24.096 3°0.65 51.8 13.4 46 16.6
2005-03-15 08:22:46 51°24.109 3°0.671 52.1 13.4 46 16.6
2005-03-15 08:22:51 51°24.123 3°0.694 52.4 13.3 47 16.6
2005-03-15 08:22:56 51°24.135 3°0.713 52.7 13.3 46 16.5
2005-03-15 08:23:01 51°24.148 3°0.734 52.6 13.3 46 16.4
2005-03-15 08:23:06 51°24.162 3°0.757 51.8 13.2 46 16.4
2005-03-15 08:23:10 51°24.172 3°0.774 51.9 13.2 46 16.3
2005-03-15 08:23:15 51°24.185 3°0.795 52.1 13.2 46 16.2
2005-03-15 08:23:21 51°24.2 3°0.821 52.2 13.2 46 16.2
2005-03-15 08:23:26 51°24.212 3°0.842 53 13.2 46 16.2
2005-03-15 08:23:30 51°24.222 3°0.859 53.7 13.2 47 16.3
2005-03-15 08:23:36 51°24.235 3°0.883 54 13.2 48 16.2
2005-03-15 08:23:41 51°24.249 3°0.906 54 13.1 47 16.1
2005-03-15 08:23:46 51°24.261 3°0.928 54.3 13.1 48 16
2005-03-15 08:23:51 51°24.273 3°0.948 54.4 13.1 48 16
2005-03-15 08:23:56 51°24.285 3°0.969 54.4 13.2 48 16
2005-03-15 08:23:59 51°24.293 3°0.984 54.4 13.1 47 16
2005-03-15 08:24:06 51°24.311 3°1.015 54.8 13.1 48 16
2005-03-15 08:24:11 51°24.323 3°1.037 54.6 13.2 48 16
2005-03-15 08:24:16 51°24.334 3°1.056 54.6 13.2 48 15.9
2005-03-15 08:24:21 51°24.346 3°1.078 54.3 13.1 47 15.9
2005-03-15 08:24:26 51°24.359 3°1.101 54.7 13.1 47 15.9
2005-03-15 08:24:30 51°24.369 3°1.119 55 13.1 49 15.8
2005-03-15 08:24:36 51°24.382 3°1.143 55 13.1 48 15.8
2005-03-15 08:24:40 51°24.392 3°1.16 55 13 48 15.7
2005-03-15 08:24:46 51°24.407 3°1.185 54.6 13 48 15.6
2005-03-15 08:24:50 51°24.417 3°1.205 54.9 13 47 15.7
2005-03-15 08:24:56 51°24.431 3°1.228 54.9 13 47 15.6
2005-03-15 08:25:01 51°24.444 3°1.252 55.1 13 48 15.6
2005-03-15 08:25:06 51°24.455 3°1.271 55.3 13 47 15.6
2005-03-15 08:25:10 51°24.465 3°1.287 54.4 13 47 15.6
2005-03-15 08:25:16 51°24.48 3°1.313 55.1 13 48 15.6
2005-03-15 08:25:20 51°24.49 3°1.33 54.9 13.1 47 15.6
2005-03-15 08:25:26 51°24.506 3°1.357 54.9 13 48 15.7
2005-03-15 08:25:30 51°24.515 3°1.375 55.1 13.1 47 15.9
2005-03-15 08:25:35 51°24.528 3°1.396 55.4 13.1 48 16.3
2005-03-15 08:25:41 51°24.541 3°1.42 55.3 13.1 47 17
2005-03-15 08:25:46 51°24.554 3°1.441 55.4 13.1 47 17.4
2005-03-15 08:25:51 51°24.567 3°1.463 55.1 13.3 47 17.6
2005-03-15 08:25:56 51°24.579 3°1.484 54.7 13.3 47 17.7
2005-03-15 08:26:00 51°24.591 3°1.504 54.4 13.3 47 17.8
2005-03-15 08:26:06 51°24.605 3°1.527 54.8 13.2 47 17.6
2005-03-15 08:26:10 51°24.616 3°1.546 54.7 13.3 47 17.9
2005-03-15 08:26:16 51°24.63 3°1.569 54.4 13.3 47 17.5
2005-03-15 08:26:22 51°24.645 3°1.595 54.1 13.3 47 17.6
2005-03-15 08:26:26 51°24.657 3°1.615 54.6 13.3 47 17.6
2005-03-15 08:26:31 51°24.668 3°1.634 54.7 13.3 47 17.6
2005-03-15 08:26:36 51°24.682 3°1.658 54.6 13.3 47 17.5
2005-03-15 08:26:40 51°24.691 3°1.673 54.8 13.3 47 17.6
2005-03-15 08:26:46 51°24.707 3°1.701 54.5 13.3 47 17.5
2005-03-15 08:26:51 51°24.72 3°1.722 54.5 13.3 46 17.6
2005-03-15 08:26:55 51°24.73 3°1.739 54.5 13.3 46 17.6
2005-03-15 08:27:00 51°24.742 3°1.758 54.2 13.3 46 17.6
2005-03-15 08:27:06 51°24.757 3°1.784 53.9 13.4 46 17.6
2005-03-15 08:27:11 51°24.771 3°1.808 54.2 13.4 46 17.6
2005-03-15 08:27:16 51°24.782 3°1.827 53.9 13.3 46 17.5
2005-03-15 08:27:21 51°24.797 3°1.85 54 13.4 46 17.3
2005-03-15 08:27:26 51°24.808 3°1.869 54.1 13.4 46 17
2005-03-15 08:27:31 51°24.822 3°1.892 53.5 13.4 45 16.7
2005-03-15 08:27:35 51°24.832 3°1.91 54.3 13.2 46 16.5
2005-03-15 08:27:40 51°24.846 3°1.931 54.3 13.3 46 16.3
2005-03-15 08:27:46 51°24.859 3°1.954 53.7 13.3 46 16.3
2005-03-15 08:27:50 51°24.869 3°1.971 54 13.1 46 16.2
2005-03-15 08:27:56 51°24.885 3°1.999 54.7 13.1 47 16
2005-03-15 08:28:02 51°24.899 3°2.022 54.6 13.3 45 15.9
2005-03-15 08:28:06 51°24.911 3°2.041 54.4 13.2 46 15.7
2005-03-15 08:28:10 51°24.92 3°2.055 54.1 13.1 46 15.6
2005-03-15 08:28:17 51°24.937 3°2.085 54.7 13.1 46 15.4
2005-03-15 08:28:20 51°24.944 3°2.098 54.3 13.1 47 15.2
2005-03-15 08:28:26 51°24.961 3°2.125 55.1 13.1 47 14.9
2005-03-15 08:28:31 51°24.973 3°2.147 54.8 13.1 47 14.7
2005-03-15 08:28:36 51°24.984 3°2.165 54.5 13.1 48 14.5
2005-03-15 08:28:41 51°24.997 3°2.187 54.3 13.2 46 14.3
2005-03-15 08:28:46 51°25.011 3°2.209 53.9 13.2 46 14.1
2005-03-15 08:28:50 51°25.021 3°2.226 54.2 13.1 46 14
2005-03-15 08:28:56 51°25.035 3°2.249 54.5 13.1 47 13.9
2005-03-15 08:29:01 51°25.049 3°2.272 54.4 13.1 47 13.8
2005-03-15 08:29:06 51°25.061 3°2.294 54.4 13.2 46 13.7
2005-03-15 08:29:10 51°25.072 3°2.31 54.7 13.2 46 13.6
2005-03-15 08:29:16 51°25.085 3°2.334 54.7 13.1 47 13.6
2005-03-15 08:29:20 51°25.095 3°2.351 55.3 13.2 48 13.6
2005-03-15 08:29:26 51°25.111 3°2.379 55.8 13.1 48 13.5
2005-03-15 08:29:31 51°25.123 3°2.4 55.9 13 48 13.5
2005-03-15 08:29:36 51°25.134 3°2.42 56.1 13 48 13.4
2005-03-15 08:29:41 51°25.147 3°2.443 55.8 13.1 48 13.3
2005-03-15 08:29:46 51°25.158 3°2.463 56.1 13.1 48 13.3
2005-03-15 08:29:51 51°25.171 3°2.484 55.5 13.1 47 13.3
2005-03-15 08:29:56 51°25.182 3°2.506 56.7 13.1 47 13.2
2005-03-15 08:30:01 51°25.196 3°2.53 56.5 13.1 47 13.2
2005-03-15 08:30:06 51°25.208 3°2.55 56.2 13.1 49 13.1
2005-03-15 08:30:11 51°25.22 3°2.573 56.6 13.1 49 13.1
2005-03-15 08:30:16 51°25.231 3°2.592 56.1 13.1 49 13
2005-03-15 08:30:21 51°25.244 3°2.616 56.1 13.2 49 12.9
2005-03-15 08:30:26 51°25.255 3°2.636 56.3 13.2 49 12.9
2005-03-15 08:30:31 51°25.268 3°2.658 56.3 13.2 49 12.8
2005-03-15 08:30:36 51°25.28 3°2.679 56.6 13.1 48 12.8
2005-03-15 08:30:40 51°25.291 3°2.699 56.5 13.2 48 12.8
2005-03-15 08:30:46 51°25.305 3°2.725 56.3 13.2 47 12.7
2005-03-15 08:30:50 51°25.315 3°2.742 56.4 13.1 49 12.5
2005-03-15 08:30:56 51°25.328 3°2.766 56.8 13.1 48 12.5
2005-03-15 08:31:01 51°25.341 3°2.791 58 13.2 49 12.4
2005-03-15 08:31:06 51°25.353 3°2.814 58 13.2 50 12.4
2005-03-15 08:31:11 51°25.364 3°2.836 59.4 13 52 12.3
2005-03-15 08:31:16 51°25.373 3°2.856 60.6 13 52 12.3
2005-03-15 08:31:21 51°25.385 3°2.879 60.8 13 52 12.2
2005-03-15 08:31:26 51°25.395 3°2.902 60.7 13 53 12.1
2005-03-15 08:31:30 51°25.405 3°2.923 60.8 13 53 12
2005-03-15 08:31:35 51°25.416 3°2.946 61.2 13 53 11.9
2005-03-15 08:31:41 51°25.429 3°2.973 60.9 13 53 11.8
2005-03-15 08:31:46 51°25.44 3°2.997 60.8 13 53 11.7
2005-03-15 08:31:51 51°25.451 3°3.02 61 13 54 11.7
2005-03-15 08:31:56 51°25.461 3°3.041 61.5 13 54 11.6
2005-03-15 08:32:02 51°25.473 3°3.069 61.8 13 54 11.4
2005-03-15 08:32:06 51°25.482 3°3.09 62.3 12.9 54 11.3
2005-03-15 08:32:10 51°25.491 3°3.108 62.4 12.9 54 11.2
2005-03-15 08:32:16 51°25.503 3°3.137 62.2 12.9 54 11.1
2005-03-15 08:32:21 51°25.513 3°3.158 63 12.9 54 11
2005-03-15 08:32:26 51°25.525 3°3.183 62.7 13.1 53 10.9
2005-03-15 08:32:31 51°25.534 3°3.204 62.2 13.1 53 10.7
2005-03-15 08:32:36 51°25.545 3°3.227 61.9 13.1 53 10.6
2005-03-15 08:32:41 51°25.557 3°3.252 61.6 13.1 53 10.4
2005-03-15 08:32:46 51°25.569 3°3.276 61.1 13.1 53 10.3
2005-03-15 08:32:51 51°25.579 3°3.299 61.6 13.1 54 10.2
2005-03-15 08:32:56 51°25.589 3°3.32 62.1 13 53 10.2
2005-03-15 08:33:02 51°25.601 3°3.348 62.4 13 53 10
2005-03-15 08:33:06 51°25.611 3°3.369 62.4 13.1 54 9.9
2005-03-15 08:33:11 51°25.62 3°3.39 62.5 13.1 54 9.7
2005-03-15 08:33:16 51°25.631 3°3.414 63.4 13 55 9.7
2005-03-15 08:33:21 51°25.642 3°3.44 63.1 13 54 9.6
2005-03-15 08:33:26 51°25.653 3°3.463 63 13 54 9.5
2005-03-15 08:33:31 51°25.663 3°3.486 62.8 13.1 54 9.4
2005-03-15 08:33:36 51°25.673 3°3.507 62.4 13.1 54 9.5
2005-03-15 08:33:41 51°25.684 3°3.533 62.4 13.1 54 9.3
2005-03-15 08:33:46 51°25.694 3°3.555 62.5 13.2 54 9.4
2005-03-15 08:33:51 51°25.706 3°3.58 62.2 13.2 54 9.5
2005-03-15 08:33:56 51°25.716 3°3.601 61.8 13.1 53 9.4
2005-03-15 08:33:59 51°25.723 3°3.618 61.8 13.1 53 9.3
2005-03-15 08:34:06 51°25.739 3°3.65 61.6 13.1 53 7.6
2005-03-15 08:34:11 51°25.75 3°3.672 61 12.9 53 8.7
2005-03-15 08:34:16 51°25.759 3°3.693 60.9 12.8 52 9.3
2005-03-15 08:34:20 51°25.768 3°3.711 61.4 12.9 52 9.1
2005-03-15 08:34:26 51°25.782 3°3.741 60.9 12.9 52 9.4
2005-03-15 08:34:30 51°25.792 3°3.76 60.3 13.2 52 9.1
2005-03-15 08:34:36 51°25.804 3°3.785 60.2 13.3 52 9.1
2005-03-15 08:34:40 51°25.813 3°3.804 60.4 13.3 53 9.3
2005-03-15 08:34:46 51°25.826 3°3.832 60.9 13.3 53 8.4
2005-03-15 08:34:50 51°25.836 3°3.853 60.7 13.2 53 9.1
2005-03-15 08:34:55 51°25.847 3°3.876 60.7 13 53 9.1
2005-03-15 08:35:01 51°25.86 3°3.903 61.3 13 53 9
2005-03-15 08:35:06 51°25.871 3°3.927 61.2 13 53 8.4
2005-03-15 08:35:11 51°25.881 3°3.95 61.4 13.1 53 9.1
2005-03-15 08:35:16 51°25.891 3°3.971 61.8 13.1 53 9.3
2005-03-15 08:35:21 51°25.904 3°3.997 61.5 13.2 52 8.8
2005-03-15 08:35:26 51°25.915 3°4.02 60.5 13.2 53 9.1
2005-03-15 08:35:30 51°25.924 3°4.038 60.7 13.2 52 8.2
2005-03-15 08:35:36 51°25.936 3°4.064 60.7 13.1 53 8.2
2005-03-15 08:35:41 51°25.947 3°4.087 60.8 13.1 53 9.1
2005-03-15 08:35:46 51°25.959 3°4.112 60.9 13 53 9.3
2005-03-15 08:35:50 51°25.968 3°4.131 60.8 13.1 52 9.7
2005-03-15 08:35:56 51°25.981 3°4.157 60.6 13.4 53 9.8
2005-03-15 08:36:00 51°25.99 3°4.176 60.8 13.4 53 9.5
2005-03-15 08:36:06 51°26.004 3°4.208 60.7 13.4 53 9.4
2005-03-15 08:36:10 51°26.014 3°4.226 60.5 13.4 52 9.5
2005-03-15 08:36:16 51°26.026 3°4.252 60 13.4 52 8.8
2005-03-15 08:36:21 51°26.037 3°4.276 60.2 13.3 52 9.6
2005-03-15 08:36:26 51°26.049 3°4.302 60.9 13.3 54 9.2
2005-03-15 08:36:31 51°26.06 3°4.326 61.6 13.3 54 9.1
2005-03-15 08:36:36 51°26.071 3°4.351 61.9 13.4 54 8.9
2005-03-15 08:36:41 51°26.081 3°4.374 62.5 13.2 54 9.6
2005-03-15 08:36:46 51°26.091 3°4.398 62.3 13.2 55 9.5
2005-03-15 08:36:50 51°26.1 3°4.418 63 13.2 55 9.8
2005-03-15 08:36:56 51°26.111 3°4.445 63.1 13.5 56 9.8
2005-03-15 08:37:02 51°26.124 3°4.475 63.8 13.5 57 9.4
2005-03-15 08:37:06 51°26.133 3°4.498 64 13.6 56 9.7
2005-03-15 08:37:10 51°26.142 3°4.517 63.8 13.5 56 9.9
2005-03-15 08:37:15 51°26.152 3°4.542 63.8 13.5 56 9.9
2005-03-15 08:37:21 51°26.164 3°4.572 64 13.4 56 9.8
2005-03-15 08:37:26 51°26.174 3°4.597 64.5 13.4 58 10.4
2005-03-15 08:37:31 51°26.185 3°4.622 64.1 13.5 56 10.1